Time;durP1;ratioP1;P1;durP2;ratioP2;P2;SDS_P1;SDS_P2;PMS_P1;PMS_P2;Temp;Humidity;BMP_temperature;BMP_pressure;BME280_temperature;BME280_humidity;BME280_pressure;Samples;Min_cycle;Max_cycle;Signal;HPM_P1;HPM_P2
2021/10/29 00:01:18;;;;;;;;;15.33;13.33;;;;;14.37;65.48;100537.16;5044134;28;45237;-77
2021/10/29 00:03:44;;;;;;;;;17.33;15.00;;;;;14.40;66.06;100539.81;5061667;28;46826;-77
2021/10/29 00:06:09;;;;;;;;;14.00;12.00;;;;;14.39;65.97;100540.69;5067670;28;45358;-77
2021/10/29 00:08:35;;;;;;;;;14.00;13.33;;;;;14.41;65.64;100540.69;5065957;28;45796;-77
2021/10/29 00:11:00;;;;;;;;;14.00;13.00;;;;;14.40;65.48;100536.25;5059059;28;45537;-77
2021/10/29 00:13:25;;;;;;;;;15.00;13.00;;;;;14.35;65.93;100525.69;5067335;28;57603;-77
2021/10/29 00:15:51;;;;;;;;;13.67;12.67;;;;;14.40;65.73;100545.13;5056009;28;53539;-78
2021/10/29 00:18:16;;;;;;;;;16.67;12.33;;;;;14.39;65.36;100537.16;5058993;28;45193;-77
2021/10/29 00:20:42;;;;;;;;;15.00;12.67;;;;;14.39;66.00;100523.88;5063939;28;51143;-77
2021/10/29 00:23:07;;;;;;;;;15.33;13.33;;;;;14.37;65.63;100521.22;5057353;28;46378;-77
2021/10/29 00:25:33;;;;;;;;;13.67;10.33;;;;;14.33;65.96;100523.94;5062503;28;45339;-77
2021/10/29 00:27:58;;;;;;;;;20.00;15.33;;;;;14.35;66.18;100517.72;5061264;28;49896;-77
2021/10/29 00:30:23;;;;;;;;;16.67;13.00;;;;;14.30;66.02;100502.72;5073663;28;45595;-77
2021/10/29 00:32:49;;;;;;;;;17.33;13.67;;;;;14.35;66.14;100516.84;5058761;28;47230;-77
2021/10/29 00:35:15;;;;;;;;;15.33;14.00;;;;;14.33;65.89;100521.28;5065253;28;45330;-77
2021/10/29 00:37:40;;;;;;;;;13.00;13.00;;;;;14.34;66.03;100510.66;5058516;28;45488;-77
2021/10/29 00:40:08;;;;;;;;;14.33;14.33;;;;;14.34;65.74;100508.00;5062027;28;45529;-78
2021/10/29 00:42:33;;;;;;;;;15.00;12.00;;;;;14.33;65.87;100503.56;5054684;28;45859;-77
2021/10/29 00:44:59;;;;;;;;;10.67;10.67;;;;;14.33;65.75;100500.91;5067333;28;45502;-78
2021/10/29 00:47:24;;;;;;;;;15.00;12.00;;;;;14.33;65.52;100497.38;5058960;28;45611;-77
2021/10/29 00:49:50;;;;;;;;;17.67;15.00;;;;;14.26;65.64;100490.34;5067361;28;45438;-77
2021/10/29 00:52:15;;;;;;;;;16.67;14.00;;;;;14.29;66.19;100495.66;5053812;28;46515;-77
2021/10/29 00:54:41;;;;;;;;;11.33;11.33;;;;;14.31;66.00;100491.19;5040237;28;45564;-77
2021/10/29 00:57:06;;;;;;;;;18.00;16.67;;;;;14.32;66.14;100490.28;5025389;28;52633;-77
2021/10/29 00:59:32;;;;;;;;;15.00;12.33;;;;;14.30;66.21;100500.94;5019474;28;50732;-79
2021/10/29 01:01:58;;;;;;;;;17.67;16.00;;;;;14.30;65.89;100494.75;5059936;28;55623;-77
2021/10/29 01:04:24;;;;;;;;;14.00;13.00;;;;;14.29;66.14;100488.56;5063162;28;45537;-77
2021/10/29 01:06:50;;;;;;;;;15.00;13.00;;;;;14.25;65.91;100483.28;5058287;28;45241;-77
2021/10/29 01:09:15;;;;;;;;;12.33;12.33;;;;;14.25;66.33;100481.50;5066804;28;45201;-77
2021/10/29 01:11:42;;;;;;;;;11.33;11.33;;;;;14.25;65.75;100488.59;5058362;28;46795;-78
2021/10/29 01:14:08;;;;;;;;;18.00;15.33;;;;;14.19;65.95;100473.59;5057977;28;45457;-77
2021/10/29 01:16:33;;;;;;;;;19.00;15.33;;;;;14.22;66.42;100472.69;5063409;28;49984;-77
2021/10/29 01:18:58;;;;;;;;;16.33;16.33;;;;;14.22;65.81;100473.59;5060461;28;46406;-77
2021/10/29 01:21:24;;;;;;;;;18.00;15.00;;;;;14.20;65.90;100467.41;5061153;28;59052;-76
2021/10/29 01:23:49;;;;;;;;;18.00;14.67;;;;;14.20;66.29;100463.88;5064697;28;52016;-77
2021/10/29 01:26:16;;;;;;;;;16.00;14.33;;;;;14.19;66.30;100463.00;5054954;28;45378;-78
2021/10/29 01:28:42;;;;;;;;;18.00;17.00;;;;;14.15;66.16;100464.78;5051528;28;45473;-77
2021/10/29 01:31:07;;;;;;;;;21.33;15.00;;;;;14.17;66.39;100472.75;5038281;28;46649;-77
2021/10/29 01:33:32;;;;;;;;;20.67;17.00;;;;;14.16;66.03;100465.66;5047681;28;48764;-77
2021/10/29 01:35:58;;;;;;;;;16.00;14.33;;;;;14.15;65.86;100472.75;5075352;28;45517;-76
2021/10/29 01:38:44;;;;;;;;;13.67;11.33;;;;;14.16;66.05;100465.66;5066165;28;50355;-77
2021/10/29 01:41:10;;;;;;;;;20.00;15.00;;;;;14.15;65.96;100462.13;5064785;28;47527;-77
2021/10/29 01:43:45;;;;;;;;;16.33;15.00;;;;;14.14;66.20;100467.47;5064992;28;45461;-77
2021/10/29 01:46:11;;;;;;;;;19.33;15.00;;;;;14.12;66.19;100456.88;5056811;28;45506;-77
2021/10/29 01:48:47;;;;;;;;;15.00;13.67;;;;;14.10;66.22;100458.63;5057626;28;45328;-77
2021/10/29 01:51:13;;;;;;;;;16.33;15.33;;;;;14.09;66.43;100456.88;5062928;28;45370;-77
2021/10/29 01:53:38;;;;;;;;;16.67;14.33;;;;;14.09;66.28;100450.69;5057372;28;45373;-77
2021/10/29 01:56:04;;;;;;;;;13.00;13.00;;;;;14.06;66.58;100435.69;5057155;28;45280;-77
2021/10/29 01:58:29;;;;;;;;;21.33;13.67;;;;;14.06;66.46;100446.31;5050670;28;45624;-77
2021/10/29 02:00:54;;;;;;;;;15.33;14.00;;;;;14.05;66.70;100439.22;5057381;28;47230;-76
2021/10/29 02:03:20;;;;;;;;;14.67;13.67;;;;;14.04;66.19;100436.56;5056936;28;56697;-76
2021/10/29 02:05:45;;;;;;;;;12.00;12.00;;;;;13.97;66.29;100425.16;5066195;28;49607;-77
2021/10/29 02:08:11;;;;;;;;;17.00;14.33;;;;;14.01;66.23;100426.88;5054409;28;45559;-76
2021/10/29 02:10:36;;;;;;;;;12.67;12.33;;;;;14.00;66.59;100430.41;5071319;28;47433;-77
2021/10/29 02:13:02;;;;;;;;;13.67;13.67;;;;;14.00;66.59;100419.78;5061052;28;45486;-78
2021/10/29 02:15:28;;;;;;;;;16.00;14.00;;;;;13.95;66.43;100411.00;5057239;28;45201;-79
2021/10/29 02:17:53;;;;;;;;;15.00;13.00;;;;;14.00;66.41;100417.13;5056896;28;45522;-76
2021/10/29 02:20:19;;;;;;;;;16.00;13.00;;;;;13.99;66.45;100415.38;5057023;28;55437;-76
2021/10/29 02:22:44;;;;;;;;;17.00;14.00;;;;;13.97;66.15;100406.56;5064915;28;57446;-77
2021/10/29 02:25:09;;;;;;;;;15.33;13.33;;;;;13.96;66.67;100410.13;5060014;28;46660;-78
2021/10/29 02:27:35;;;;;;;;;13.00;13.00;;;;;13.95;66.24;100408.34;5053569;28;45262;-77
2021/10/29 02:30:00;;;;;;;;;23.00;14.00;;;;;13.95;66.64;100413.66;5039377;28;45582;-77
2021/10/29 02:32:26;;;;;;;;;16.00;13.00;;;;;13.93;66.26;100404.84;5061804;28;48495;-77
2021/10/29 02:34:51;;;;;;;;;14.00;12.33;;;;;13.92;66.32;100408.38;5050624;28;45517;-77
2021/10/29 02:37:16;;;;;;;;;10.67;10.67;;;;;13.92;66.45;100399.53;5056522;28;52601;-77
2021/10/29 02:39:42;;;;;;;;;11.00;11.00;;;;;13.92;66.44;100412.81;5056658;28;45611;-77
2021/10/29 02:42:07;;;;;;;;;14.00;13.00;;;;;13.89;66.49;100406.63;5069196;28;45366;-76
2021/10/29 02:44:33;;;;;;;;;13.67;13.00;;;;;13.88;66.54;100393.38;5069044;28;45315;-77
2021/10/29 02:46:58;;;;;;;;;14.67;11.33;;;;;13.85;66.35;100394.31;5056586;28;48768;-77
2021/10/29 02:49:23;;;;;;;;;13.00;12.33;;;;;13.84;66.41;100389.88;5056833;28;46422;-76
2021/10/29 02:51:49;;;;;;;;;15.33;13.00;;;;;13.84;66.51;100389.88;5065870;28;56829;-77
2021/10/29 02:54:14;;;;;;;;;13.00;13.00;;;;;13.83;66.35;100380.16;5052634;28;47505;-77
2021/10/29 02:56:40;;;;;;;;;13.67;12.00;;;;;13.83;66.46;100374.84;5051775;28;51370;-78
2021/10/29 02:59:05;;;;;;;;;12.67;11.33;;;;;13.82;66.23;100378.38;5055859;28;57483;-77
2021/10/29 03:01:30;;;;;;;;;14.00;13.00;;;;;13.78;66.49;100366.03;5038043;28;56511;-77
2021/10/29 03:03:56;;;;;;;;;15.00;12.00;;;;;13.79;66.34;100366.91;5049309;28;47520;-78
2021/10/29 03:06:21;;;;;;;;;12.33;12.33;;;;;13.78;66.52;100370.47;5066804;28;50117;-77
2021/10/29 03:08:47;;;;;;;;;11.67;10.67;;;;;13.77;66.45;100366.94;5058281;28;45311;-78
2021/10/29 03:11:12;;;;;;;;;11.33;10.00;;;;;13.78;66.26;100357.19;5037685;28;57248;-77
2021/10/29 03:13:37;;;;;;;;;10.33;10.33;;;;;13.73;66.28;100346.63;5055828;28;48754;-77
2021/10/29 03:16:03;;;;;;;;;12.67;11.67;;;;;13.77;66.12;100353.69;5054252;28;45122;-77
2021/10/29 03:18:28;;;;;;;;;14.33;12.00;;;;;13.72;66.04;100344.88;5038194;28;47500;-77
2021/10/29 03:20:54;;;;;;;;;12.00;10.00;;;;;13.76;66.08;100353.69;5055418;28;52458;-77
2021/10/29 03:23:20;;;;;;;;;11.67;9.00;;;;;13.74;66.00;100339.53;5048719;28;53624;-77
2021/10/29 03:25:45;;;;;;;;;10.33;9.33;;;;;13.67;66.07;100330.78;5066111;28;45485;-77
2021/10/29 03:28:11;;;;;;;;;9.33;8.67;;;;;13.74;66.05;100334.25;5041733;28;46879;-77
2021/10/29 03:30:36;;;;;;;;;12.33;11.00;;;;;13.72;65.88;100331.59;5043902;28;46050;-76
2021/10/29 03:33:02;;;;;;;;;12.67;11.67;;;;;13.68;65.87;100321.91;5059877;28;45879;-76
2021/10/29 03:35:27;;;;;;;;;14.33;11.67;;;;;13.70;65.88;100324.56;5059253;28;46753;-77
2021/10/29 03:45:55;;;;;;;;;9.67;9.67;;;;;13.66;65.79;100313.09;5070679;28;45471;-77
2021/10/29 03:48:28;;;;;;;;;8.00;8.00;;;;;13.68;65.64;100313.97;5056007;28;46626;-78
2021/10/29 03:55:54;;;;;;;;;15.00;11.00;;;;;13.70;65.62;100313.97;5059727;28;45331;-76
2021/10/29 03:58:20;;;;;;;;;13.33;10.00;;;;;13.70;65.57;100309.53;5059165;28;46587;-78
2021/10/29 04:00:45;;;;;;;;;13.67;8.33;;;;;13.69;65.36;100302.47;5066101;28;45592;-77
2021/10/29 04:03:11;;;;;;;;;7.00;7.00;;;;;13.70;65.62;100308.66;5051794;28;45792;-77
2021/10/29 04:05:36;;;;;;;;;11.33;11.00;;;;;13.69;65.38;100298.91;5041455;28;45569;-77
2021/10/29 04:08:02;;;;;;;;;11.00;8.00;;;;;13.69;65.55;100294.50;5059620;28;60926;-77
2021/10/29 04:10:29;;;;;;;;;12.33;8.00;;;;;13.71;65.38;100294.50;5054300;28;45323;-77
2021/10/29 04:13:00;;;;;;;;;10.00;10.00;;;;;13.69;65.33;100294.50;5072668;28;45442;-77
2021/10/29 04:15:25;;;;;;;;;11.00;10.67;;;;;13.67;65.43;100290.09;5060128;28;45558;-77
2021/10/29 04:17:51;;;;;;;;;12.33;10.67;;;;;13.68;65.72;100283.91;5058641;28;47282;-77
2021/10/29 04:20:16;;;;;;;;;7.67;7.67;;;;;13.68;65.58;100276.81;5056649;28;45424;-77
2021/10/29 04:22:42;;;;;;;;;11.67;9.33;;;;;13.68;65.41;100276.81;5074399;28;45514;-77
2021/10/29 04:25:07;;;;;;;;;11.00;8.00;;;;;13.67;65.80;100269.75;5058045;28;45324;-77
2021/10/29 04:27:35;;;;;;;;;10.67;9.67;;;;;13.67;65.57;100268.88;5067662;28;47097;-77
2021/10/29 04:30:01;;;;;;;;;7.00;7.00;;;;;13.67;65.80;100269.75;5063270;28;45291;-77
2021/10/29 04:32:26;;;;;;;;;9.00;9.00;;;;;13.68;65.39;100273.28;5058697;28;45637;-77
2021/10/29 04:34:52;;;;;;;;;12.00;9.33;;;;;13.67;65.64;100261.78;5055922;28;50448;-78
2021/10/29 04:37:18;;;;;;;;;7.33;7.33;;;;;13.63;65.66;100260.97;5055726;28;46293;-77
2021/10/29 04:39:44;;;;;;;;;15.00;12.33;;;;;13.65;66.14;100263.59;5059244;28;45502;-76
2021/10/29 04:42:10;;;;;;;;;10.67;10.67;;;;;13.68;65.53;100262.66;5040678;28;45596;-78
2021/10/29 04:44:35;;;;;;;;;11.67;8.67;;;;;13.69;65.94;100256.47;5038343;28;50017;-77
2021/10/29 04:47:01;;;;;;;;;13.00;11.00;;;;;13.65;65.80;100252.13;5058487;28;46401;-77
2021/10/29 04:49:26;;;;;;;;;10.67;10.00;;;;;13.68;65.80;100258.25;5058536;28;45334;-76
2021/10/29 04:51:51;;;;;;;;;12.33;8.67;;;;;13.69;65.81;100251.16;5058631;28;45714;-78
2021/10/29 04:54:17;;;;;;;;;10.00;10.00;;;;;13.68;66.05;100244.97;5058348;28;48209;-77
2021/10/29 04:56:43;;;;;;;;;9.67;9.67;;;;;13.69;65.71;100253.81;5058046;28;46688;-77
2021/10/29 04:59:11;;;;;;;;;8.33;8.33;;;;;13.65;65.94;100244.16;5074874;28;45489;-76
2021/10/29 05:01:36;;;;;;;;;11.33;6.67;;;;;13.66;65.67;100246.78;5058548;28;45254;-77
2021/10/29 05:04:02;;;;;;;;;10.67;10.00;;;;;13.66;66.04;100240.59;5058778;28;45483;-77
2021/10/29 05:06:28;;;;;;;;;11.00;9.33;;;;;13.66;65.90;100238.81;5063551;28;47725;-78
2021/10/29 05:08:53;;;;;;;;;11.33;9.33;;;;;13.66;65.78;100240.59;5056956;28;55944;-77
2021/10/29 05:11:18;;;;;;;;;15.00;10.67;;;;;13.66;65.88;100244.13;5057191;28;53136;-78
2021/10/29 05:13:44;;;;;;;;;7.00;7.00;;;;;13.61;65.87;100224.72;5057609;28;51027;-77
2021/10/29 05:16:09;;;;;;;;;11.00;11.00;;;;;13.65;66.08;100231.75;5057058;28;56883;-77
2021/10/29 05:18:35;;;;;;;;;11.00;8.33;;;;;13.65;65.83;100234.41;5061927;28;45147;-76
2021/10/29 05:21:00;;;;;;;;;13.67;11.00;;;;;13.66;65.95;100227.34;5063093;28;52140;-77
2021/10/29 05:23:26;;;;;;;;;15.00;11.67;;;;;13.63;66.06;100210.56;5075561;28;49761;-76
2021/10/29 05:25:52;;;;;;;;;11.00;9.67;;;;;13.72;65.88;100219.31;5050107;28;46474;-78
2021/10/29 05:28:17;;;;;;;;;11.33;10.33;;;;;13.74;65.91;100218.41;5037806;28;45302;-78
2021/10/29 05:30:43;;;;;;;;;9.67;9.67;;;;;13.78;65.96;100221.88;5061640;28;50774;-76
2021/10/29 05:33:08;;;;;;;;;11.00;9.00;;;;;13.77;65.68;100205.09;5068178;28;52284;-76
2021/10/29 05:35:33;;;;;;;;;13.00;10.67;;;;;13.83;65.86;100212.09;5049330;28;53420;-77
2021/10/29 05:37:59;;;;;;;;;12.00;8.00;;;;;13.83;65.40;100215.63;5057781;28;59950;-77
2021/10/29 05:40:24;;;;;;;;;11.00;11.00;;;;;13.84;65.87;100212.06;5055327;28;45491;-77
2021/10/29 05:42:50;;;;;;;;;9.33;9.33;;;;;13.85;65.88;100210.31;5045024;28;52040;-77
2021/10/29 05:45:15;;;;;;;;;7.00;7.00;;;;;13.81;65.55;100205.94;5056814;28;47780;-77
2021/10/29 05:47:41;;;;;;;;;14.00;9.33;;;;;13.85;65.48;100205.88;5057089;28;45216;-77
2021/10/29 05:50:09;;;;;;;;;10.67;8.33;;;;;13.84;65.55;100213.84;5060540;28;45315;-77
2021/10/29 05:52:38;;;;;;;;;9.00;8.00;;;;;13.83;65.61;100206.78;5049453;28;45522;-77
2021/10/29 05:55:14;;;;;;;;;9.33;7.67;;;;;13.81;65.78;100211.25;5055216;28;46630;-77
2021/10/29 05:57:41;;;;;;;;;9.67;8.00;;;;;13.66;65.81;100190.19;5056830;28;45610;-77
2021/10/29 06:00:07;;;;;;;;;8.67;8.67;;;;;13.77;66.03;100204.22;5064510;28;45431;-77
2021/10/29 06:02:33;;;;;;;;;6.00;5.00;;;;;13.78;65.73;100205.97;5054207;28;46096;-76
2021/10/29 06:04:58;;;;;;;;;11.33;8.33;;;;;13.75;65.98;100198.94;5040583;28;47027;-77
2021/10/29 06:07:23;;;;;;;;;6.00;6.00;;;;;13.75;66.05;100196.28;5064385;28;55502;-77
2021/10/29 06:09:49;;;;;;;;;8.33;8.33;;;;;13.76;65.89;100187.41;5061621;28;48084;-77
2021/10/29 06:12:14;;;;;;;;;10.33;9.33;;;;;13.75;65.69;100201.59;5058774;28;45763;-77
2021/10/29 06:14:41;;;;;;;;;10.33;8.00;;;;;13.76;65.84;100191.84;5054345;28;58528;-77
2021/10/29 06:17:07;;;;;;;;;9.00;9.00;;;;;13.72;66.05;100184.81;5055498;28;45569;-77
2021/10/29 06:19:33;;;;;;;;;11.33;9.33;;;;;13.76;66.13;100187.41;5056310;28;45663;-79
2021/10/29 06:24:33;;;;;;;;;12.33;10.67;;;;;13.78;66.15;100182.06;5039632;28;46391;-76
2021/10/29 06:29:27;;;;;;;;;8.67;8.00;;;;;13.78;66.14;100180.28;5053577;28;45526;-77
2021/10/29 06:31:52;;;;;;;;;17.00;12.67;;;;;13.81;66.04;100190.00;5053858;28;54147;-78
2021/10/29 06:34:17;;;;;;;;;13.67;8.33;;;;;13.82;66.05;100203.25;5037346;28;47102;-77
2021/10/29 06:36:43;;;;;;;;;10.33;8.00;;;;;13.80;65.71;100182.97;5033041;28;45510;-79
2021/10/29 06:39:09;;;;;;;;;9.33;9.33;;;;;13.77;66.02;100191.81;5036229;28;45559;-79
2021/10/29 06:41:35;;;;;;;;;11.00;8.00;;;;;13.74;66.64;100190.97;5023807;28;45678;-78
2021/10/29 07:00:06;;;;;;;;;8.00;8.00;;;;;14.05;66.58;100187.03;5035275;28;45541;-80
2021/10/29 07:40:01;;;;;;;;;8.00;7.67;;;;;14.68;64.53;100179.03;5049626;28;45580;-74
2021/10/29 07:42:30;;;;;;;;;7.00;7.00;;;;;14.73;64.59;100196.69;5056591;28;45510;-74
2021/10/29 07:44:55;;;;;;;;;12.33;8.00;;;;;14.75;64.48;100189.56;5066114;28;45570;-74
2021/10/29 07:47:21;;;;;;;;;12.33;8.00;;;;;14.74;64.29;100182.50;5038614;28;55995;-75
2021/10/29 07:49:46;;;;;;;;;10.00;7.00;;;;;14.75;64.48;100185.13;5052681;28;45467;-76
2021/10/29 07:52:12;;;;;;;;;7.67;6.67;;;;;14.82;64.25;100196.53;5051204;28;51769;-74
2021/10/29 07:54:43;;;;;;;;;7.00;7.00;;;;;14.81;64.04;100185.03;5056841;28;45531;-76
2021/10/29 07:57:09;;;;;;;;;10.33;6.00;;;;;14.87;64.37;100192.03;5049872;28;47640;-74
2021/10/29 07:59:34;;;;;;;;;7.67;6.00;;;;;14.87;62.90;100192.91;5060354;28;45412;-74
2021/10/29 08:02:00;;;;;;;;;7.00;6.00;;;;;14.89;64.26;100198.19;5056186;28;45412;-75
2021/10/29 08:04:25;;;;;;;;;9.33;7.00;;;;;14.94;64.14;100209.63;5055001;28;45529;-74
2021/10/29 08:06:52;;;;;;;;;7.00;5.00;;;;;14.93;64.34;100198.13;5060246;28;47190;-75
2021/10/29 08:09:18;;;;;;;;;8.33;5.67;;;;;15.00;63.95;100208.63;5057949;28;45494;-74
2021/10/29 08:11:44;;;;;;;;;8.00;5.67;;;;;14.98;63.51;100192.72;5060447;28;45504;-74
2021/10/29 08:14:09;;;;;;;;;4.67;4.00;;;;;15.05;62.83;100209.44;5055697;28;45387;-75
2021/10/29 08:16:35;;;;;;;;;6.33;5.00;;;;;15.09;63.41;100209.38;5057946;28;45619;-74
2021/10/29 08:19:01;;;;;;;;;8.00;5.00;;;;;15.11;64.02;100202.22;5057147;28;51022;-74
2021/10/29 08:21:26;;;;;;;;;7.00;4.00;;;;;15.16;63.27;100215.44;5055183;28;45681;-74
2021/10/29 08:23:51;;;;;;;;;7.33;5.67;;;;;15.19;63.37;100207.44;5052643;28;45555;-75
2021/10/29 08:26:17;;;;;;;;;4.33;3.67;;;;;15.23;62.84;100210.88;5053385;28;52631;-75
2021/10/29 08:28:43;;;;;;;;;6.33;5.00;;;;;15.26;63.21;100211.72;5055404;28;45625;-73
2021/10/29 08:31:12;;;;;;;;;7.00;5.00;;;;;15.31;63.30;100214.31;5056305;28;45510;-75
2021/10/29 08:33:38;;;;;;;;;6.33;5.00;;;;;15.33;63.30;100217.78;5052156;28;45620;-73
2021/10/29 08:36:05;;;;;;;;;7.00;4.33;;;;;15.36;63.04;100207.13;5052923;28;46169;-74
2021/10/29 08:38:30;;;;;;;;;6.33;5.00;;;;;15.39;63.52;100205.28;5039230;28;45514;-73
2021/10/29 08:40:56;;;;;;;;;6.67;6.67;;;;;15.42;62.60;100214.97;5054956;28;45384;-75
2021/10/29 08:43:22;;;;;;;;;6.00;5.00;;;;;15.45;63.24;100218.47;5056305;28;45573;-74
2021/10/29 08:45:48;;;;;;;;;8.67;5.33;;;;;15.45;62.53;100202.50;5051993;28;46440;-74
2021/10/29 08:48:15;;;;;;;;;5.00;5.00;;;;;15.50;62.79;100209.50;5053882;28;45517;-74
2021/10/29 08:50:40;;;;;;;;;7.00;6.00;;;;;15.45;62.30;100202.50;5055535;28;45677;-74
2021/10/29 08:53:06;;;;;;;;;7.67;5.00;;;;;15.56;62.78;100206.75;5035489;28;45665;-73
2021/10/29 08:55:33;;;;;;;;;7.00;6.00;;;;;15.58;62.65;100213.78;5057179;28;46681;-75
2021/10/29 08:58:01;;;;;;;;;8.33;6.67;;;;;15.61;62.25;100212.84;5057670;28;46284;-75
2021/10/29 09:00:34;;;;;;;;;5.33;4.00;;;;;15.58;62.97;100197.81;5057564;28;45485;-76
2021/10/29 09:05:52;;;;;;;;;6.00;4.00;;;;;15.66;62.23;100205.69;5032043;28;46614;-76
2021/10/29 09:08:38;;;;;;;;;4.00;4.00;;;;;15.68;62.33;100206.53;5055945;28;45486;-75
2021/10/29 09:17:06;;;;;;;;;6.00;4.00;;;;;15.80;62.46;100216.03;5055285;28;45419;-75
2021/10/29 09:31:25;;;;;;;;;6.33;5.00;;;;;16.05;61.86;100206.66;5059345;27;45535;-75
2021/10/29 09:34:09;;;;;;;;;6.00;3.67;;;;;16.13;61.78;100218.00;5039961;28;45465;-75
2021/10/29 09:36:38;;;;;;;;;9.00;5.67;;;;;16.19;61.58;100222.31;5058415;28;45658;-75
2021/10/29 09:39:08;;;;;;;;;6.00;4.00;;;;;16.19;61.59;100214.31;5059579;28;46658;-73
2021/10/29 09:41:35;;;;;;;;;5.00;5.00;;;;;16.28;61.47;100223.91;5056761;28;45490;-73
2021/10/29 09:44:05;;;;;;;;;6.00;4.00;;;;;16.32;61.77;100212.28;5061385;28;45334;-73
2021/10/29 09:46:34;;;;;;;;;6.00;5.67;;;;;16.33;61.01;100211.34;5057268;28;45439;-73
2021/10/29 09:49:15;;;;;;;;;4.00;4.00;;;;;16.38;60.73;100217.47;5063586;28;45683;-73
2021/10/29 09:51:55;;;;;;;;;3.00;3.00;;;;;16.40;61.32;100220.97;5060248;28;45395;-75
2021/10/29 09:54:32;;;;;;;;;4.00;4.00;;;;;16.40;61.64;100219.16;5039593;28;45239;-75
2021/10/29 09:56:57;;;;;;;;;6.00;4.00;;;;;16.35;62.17;100215.75;5062219;28;45486;-74
2021/10/29 09:59:23;;;;;;;;;9.00;6.00;;;;;16.44;62.60;100238.63;5022145;28;47362;-74
2021/10/29 10:01:48;;;;;;;;;6.00;6.00;;;;;16.43;62.65;100229.78;5060621;28;45396;-74
2021/10/29 10:04:14;;;;;;;;;5.00;5.00;;;;;16.42;62.52;100230.69;5029617;28;45928;-75
2021/10/29 10:06:40;;;;;;;;;6.00;5.00;;;;;16.40;62.74;100229.81;5055715;28;45375;-74
2021/10/29 10:09:09;;;;;;;;;6.00;6.00;;;;;16.39;63.29;100230.75;5063658;28;46548;-75
2021/10/29 10:11:36;;;;;;;;;5.00;5.00;;;;;16.33;63.97;100230.88;5036517;28;45579;-75
2021/10/29 10:14:03;;;;;;;;;6.33;6.33;;;;;16.32;64.21;100223.81;5049962;28;45763;-74
2021/10/29 10:16:29;;;;;;;;;5.33;5.33;;;;;16.33;63.99;100244.19;5025030;28;45581;-73
2021/10/29 10:18:55;;;;;;;;;7.00;5.33;;;;;16.32;64.55;100241.59;5032270;28;47352;-73
2021/10/29 10:21:22;;;;;;;;;4.33;4.33;;;;;16.29;64.91;100237.19;5054020;28;45419;-74
2021/10/29 10:23:50;;;;;;;;;6.00;5.00;;;;;16.28;64.69;100237.22;5067268;27;45575;-74
2021/10/29 10:48:34;;;;;;;;;9.00;8.00;;;;;16.08;67.46;100265.16;5062243;28;47196;-73
2021/10/29 10:54:22;;;;;;;;;8.00;8.00;;;;;16.05;67.24;100278.53;5052089;28;45459;-74
2021/10/29 10:57:43;;;;;;;;;9.00;7.33;;;;;16.03;68.77;100266.16;5050303;28;45179;-72
2021/10/29 11:10:20;;;;;;;;;9.00;8.00;;;;;16.01;69.35;100242.22;5054604;28;45521;-73
2021/10/29 11:12:46;;;;;;;;;8.00;7.00;;;;;16.03;68.68;100239.53;5030447;22;46560;-72
2021/10/29 11:15:22;;;;;;;;;8.00;8.00;;;;;15.99;68.50;100236.06;5045134;28;45541;-73
2021/10/29 11:18:16;;;;;;;;;11.00;9.00;;;;;16.06;68.99;100240.34;5036597;28;45443;-74
2021/10/29 11:20:53;;;;;;;;;13.00;8.67;;;;;16.07;70.15;100233.22;5044992;28;45371;-73
2021/10/29 11:23:34;;;;;;;;;6.33;6.33;;;;;16.11;68.94;100227.81;5043889;28;45733;-73
2021/10/29 11:26:25;;;;;;;;;10.67;8.00;;;;;16.12;69.18;100228.69;5035583;28;45430;-74
2021/10/29 11:28:52;;;;;;;;;8.00;8.00;;;;;16.16;69.19;100227.72;5044535;28;45739;-73
2021/10/29 11:31:32;;;;;;;;;8.00;8.00;;;;;16.18;69.38;100218.78;5047380;28;45618;-74
2021/10/29 11:33:59;;;;;;;;;8.33;8.33;;;;;16.18;70.11;100208.13;5034647;28;47569;-74
2021/10/29 11:36:32;;;;;;;;;11.33;8.33;;;;;16.26;69.42;100218.63;5041783;28;45489;-73
2021/10/29 11:38:58;;;;;;;;;20.33;16.33;;;;;16.28;68.67;100205.25;5049533;28;45538;-73
2021/10/29 11:41:26;;;;;;;;;38.67;31.00;;;;;16.27;69.81;100192.84;5036500;28;45624;-74
2021/10/29 11:43:52;;;;;;;;;48.00;32.00;;;;;16.30;69.23;100206.09;5036143;28;47293;-74
2021/10/29 11:46:17;;;;;;;;;23.67;18.00;;;;;16.26;69.30;100199.09;5037902;28;45493;-72
2021/10/29 11:48:44;;;;;;;;;12.00;12.00;;;;;16.25;69.38;100190.22;5039309;28;45599;-73
2021/10/29 11:51:11;;;;;;;;;15.33;15.33;;;;;16.31;69.39;100198.09;5038212;28;45536;-73
2021/10/29 11:53:42;;;;;;;;;11.67;11.33;;;;;16.31;69.43;100200.75;5046201;28;47237;-73
2021/10/29 11:56:22;;;;;;;;;10.00;9.00;;;;;16.33;69.58;100195.38;5038849;28;45590;-73
2021/10/29 11:59:07;;;;;;;;;14.33;9.67;;;;;16.35;69.87;100198.88;5035204;28;45487;-75
2021/10/29 12:07:17;;;;;;;;;13.33;11.00;;;;;16.53;69.27;100197.59;5047513;28;45558;-75
2021/10/29 12:09:43;;;;;;;;;9.33;7.33;;;;;16.66;69.25;100205.22;5051000;28;46757;-76
2021/10/29 12:12:13;;;;;;;;;11.00;8.33;;;;;16.72;68.43;100197.16;5041874;28;45614;-74
2021/10/29 12:14:43;;;;;;;;;7.00;7.00;;;;;16.77;68.44;100189.88;5035879;28;46407;-74
2021/10/29 12:17:11;;;;;;;;;14.00;12.00;;;;;16.94;68.00;100205.50;5042254;28;45571;-75
2021/10/29 12:19:37;;;;;;;;;9.33;8.00;;;;;17.06;68.11;100193.63;5044147;28;45504;-75
2021/10/29 12:22:47;;;;;;;;;9.00;9.00;;;;;17.11;67.38;100194.38;5045886;28;45616;-73
2021/10/29 12:25:08;;;;;;;;;7.67;7.67;;;;;17.09;67.64;100180.19;5018625;28;45543;-76
2021/10/29 12:27:40;;;;;;;;;10.00;8.67;;;;;17.26;67.78;100185.97;5042512;28;45518;-75
2021/10/29 12:30:12;;;;;;;;;7.00;7.00;;;;;17.35;67.33;100182.16;5043975;28;45347;-75
2021/10/29 12:33:01;;;;;;;;;12.67;8.00;;;;;17.41;67.91;100191.81;5043157;28;45541;-75
2021/10/29 12:58:52;;;;;;;;;8.33;6.33;;;;;17.42;67.17;100150.88;5042077;28;45394;-76
2021/10/29 13:01:35;;;;;;;;;7.33;7.33;;;;;17.40;67.18;100148.22;5034143;28;45628;-76
2021/10/29 13:04:22;;;;;;;;;8.00;8.00;;;;;17.42;66.89;100162.44;5031954;28;45442;-76
2021/10/29 13:06:49;;;;;;;;;8.67;8.33;;;;;17.45;66.74;100150.78;5037099;28;45381;-76
2021/10/29 13:09:25;;;;;;;;;7.33;7.33;;;;;17.38;67.16;100159.88;5036874;28;46593;-75
2021/10/29 13:12:04;;;;;;;;;6.67;6.67;;;;;17.43;66.59;100163.28;5031527;28;45517;-77
2021/10/29 13:14:32;;;;;;;;;8.67;7.33;;;;;17.36;66.50;100172.38;5035374;28;45504;-76
2021/10/29 13:16:59;;;;;;;;;10.33;8.67;;;;;17.31;66.68;100163.63;5030868;28;45430;-76
2021/10/29 13:52:21;;;;;;;;;8.00;8.00;;;;;17.29;66.35;100185.88;5036669;28;45642;-77
2021/10/29 13:54:30;;;;;;;;;9.00;6.33;;;;;17.26;65.83;100185.97;5021835;28;45454;-77
2021/10/29 13:59:39;;;;;;;;;7.67;7.67;;;;;17.17;66.48;100194.22;5030923;28;45438;-77
2021/10/29 14:30:00;;;;;;;;;9.00;8.67;;;;;16.79;68.30;100215.66;5032894;28;45435;-77
2021/10/29 14:32:49;;;;;;;;;8.00;8.00;;;;;16.74;68.72;100211.31;5034354;28;45404;-76
2021/10/29 14:35:22;;;;;;;;;8.67;8.00;;;;;16.71;68.87;100211.38;5034782;28;45318;-76
2021/10/29 14:40:25;;;;;;;;;9.33;8.00;;;;;16.69;69.79;100212.31;5035818;28;45545;-77
2021/10/29 14:42:56;;;;;;;;;9.00;9.00;;;;;16.69;69.82;100217.63;5028322;28;45568;-76
2021/10/29 14:45:43;;;;;;;;;7.00;7.00;;;;;16.66;69.88;100213.22;5033863;28;46587;-77
2021/10/29 14:48:32;;;;;;;;;13.00;8.00;;;;;16.64;69.77;100212.41;5035980;28;45367;-77
2021/10/29 15:04:39;;;;;;;;;8.00;8.00;;;;;16.50;70.71;100220.72;5036129;28;45663;-77
2021/10/29 15:07:35;;;;;;;;;9.67;7.67;;;;;16.60;70.77;100213.38;5028336;28;45555;-78
2021/10/29 15:24:42;;;;;;;;;8.67;6.33;;;;;16.79;70.39;100221.00;5034370;28;45539;-76
2021/10/29 15:32:21;;;;;;;;;8.00;5.00;;;;;16.64;70.51;100201.75;5018221;28;45512;-78
2021/10/29 15:43:15;;;;;;;;;10.67;8.67;;;;;16.63;70.90;100218.66;5033673;28;45272;-76
2021/10/29 15:45:45;;;;;;;;;7.67;7.00;;;;;16.59;70.78;100216.97;5032612;28;45530;-77